Time;durP1;ratioP1;P1;durP2;ratioP2;P2;SDS_P1;SDS_P2;PMS_P1;PMS_P2;Temp;Humidity;BMP_temperature;BMP_pressure;BME280_temperature;BME280_humidity;BME280_pressure;Samples;Min_cycle;Max_cycle;Signal;HPM_P1;HPM_P2
2022/01/28 00:00:07;;;;;;;7.30;1.38;;;;;;;;;;4983331;28;20518;-69
2022/01/28 00:02:55;;;;;;;6.00;1.38;;;;;;;;;;4969146;28;20034;-69
2022/01/28 00:05:22;;;;;;;5.97;1.50;;;;;;;;;;4985542;28;20121;-69
2022/01/28 00:07:52;;;;;;;7.93;1.60;;;;;;;;;;4984301;28;20088;-69
2022/01/28 00:10:19;;;;;;;7.05;1.40;;;;;;;;;;4969443;28;20034;-69
2022/01/28 00:13:12;;;;;;;6.78;1.70;;;;;;;;;;5002357;28;20037;-69
2022/01/28 00:15:43;;;;;;;7.15;2.00;;;;;;;;;;4985845;28;20104;-69
2022/01/28 00:37:26;;;;;;;5.97;1.50;;;;;;;;;;4984023;28;19928;-69
2022/01/28 00:39:52;;;;;;;5.43;1.25;;;;;;;;;;4985529;28;20056;-69
2022/01/28 00:42:18;;;;;;;6.85;1.80;;;;;;;;;;4968282;28;20073;-69
2022/01/28 00:44:44;;;;;;;8.18;2.00;;;;;;;;;;4985463;28;20048;-69
2022/01/28 00:47:10;;;;;;;7.70;1.60;;;;;;;;;;4984231;28;20034;-69
2022/01/28 00:49:36;;;;;;;6.13;1.48;;;;;;;;;;5002866;28;20117;-69
2022/01/28 00:52:02;;;;;;;7.20;1.58;;;;;;;;;;4967734;28;20502;-69
2022/01/28 00:54:28;;;;;;;8.02;1.55;;;;;;;;;;4985100;28;20056;-69
2022/01/28 00:56:54;;;;;;;6.57;1.88;;;;;;;;;;4984469;28;20125;-69
2022/01/28 00:59:20;;;;;;;10.20;2.13;;;;;;;;;;4984809;28;20121;-69
2022/01/28 01:01:46;;;;;;;7.90;1.70;;;;;;;;;;4984134;28;20140;-69
2022/01/28 01:04:13;;;;;;;9.02;2.08;;;;;;;;;;4984859;28;20050;-68
2022/01/28 01:06:39;;;;;;;6.40;1.58;;;;;;;;;;4982509;28;20049;-69
2022/01/28 01:09:05;;;;;;;7.50;1.70;;;;;;;;;;4985965;28;20049;-69
2022/01/28 01:11:31;;;;;;;9.45;1.85;;;;;;;;;;4984527;28;20132;-69
2022/01/28 01:13:59;;;;;;;5.75;1.38;;;;;;;;;;4985166;28;20050;-69
2022/01/28 01:16:33;;;;;;;7.22;1.83;;;;;;;;;;4984310;28;20483;-69
2022/01/28 01:19:16;;;;;;;5.95;1.33;;;;;;;;;;4985101;28;20049;-69
2022/01/28 01:21:43;;;;;;;7.00;1.55;;;;;;;;;;4983548;28;20052;-69
2022/01/28 01:24:18;;;;;;;7.45;1.85;;;;;;;;;;4984979;28;20038;-69
2022/01/28 01:26:44;;;;;;;6.57;1.50;;;;;;;;;;4984142;28;20435;-68
2022/01/28 01:29:13;;;;;;;8.20;1.60;;;;;;;;;;4984985;28;20115;-68
2022/01/28 01:31:42;;;;;;;6.95;1.67;;;;;;;;;;4968586;28;20502;-69
2022/01/28 01:36:37;;;;;;;6.97;1.55;;;;;;;;;;4983532;28;20438;-69
2022/01/28 01:39:03;;;;;;;8.60;2.15;;;;;;;;;;4984752;28;20042;-69
2022/01/28 01:41:40;;;;;;;9.25;1.88;;;;;;;;;;4983857;28;20125;-69
2022/01/28 01:44:15;;;;;;;6.13;1.60;;;;;;;;;;4985114;28;20053;-70
2022/01/28 01:47:15;;;;;;;8.20;1.80;;;;;;;;;;4983776;28;20081;-69
2022/01/28 01:52:26;;;;;;;6.10;1.45;;;;;;;;;;4982864;28;20602;-69
2022/01/28 01:54:52;;;;;;;7.38;2.08;;;;;;;;;;5002425;28;20056;-69
2022/01/28 01:57:18;;;;;;;8.18;2.35;;;;;;;;;;4967445;28;20108;-69
2022/01/28 01:59:47;;;;;;;7.80;1.67;;;;;;;;;;4984662;28;20077;-69
2022/01/28 02:02:13;;;;;;;7.80;1.75;;;;;;;;;;4983666;28;20121;-69
2022/01/28 02:04:39;;;;;;;7.07;1.58;;;;;;;;;;4984493;28;20077;-69
2022/01/28 02:07:06;;;;;;;8.27;2.00;;;;;;;;;;4983526;28;20119;-69
2022/01/28 02:09:32;;;;;;;7.75;1.77;;;;;;;;;;4984588;28;20076;-69
2022/01/28 02:11:58;;;;;;;6.15;1.50;;;;;;;;;;4967487;28;20046;-69
2022/01/28 02:14:24;;;;;;;5.47;1.80;;;;;;;;;;4984250;28;20053;-69
2022/01/28 02:16:50;;;;;;;7.05;1.80;;;;;;;;;;4980162;28;20050;-69
2022/01/28 02:19:16;;;;;;;6.10;1.80;;;;;;;;;;4980936;28;20465;-69
2022/01/28 02:21:48;;;;;;;8.23;1.88;;;;;;;;;;4962943;28;20042;-69
2022/01/28 02:24:18;;;;;;;8.95;1.80;;;;;;;;;;4981252;28;20047;-69
2022/01/28 02:26:44;;;;;;;8.55;1.95;;;;;;;;;;4980130;28;20729;-69
2022/01/28 02:29:14;;;;;;;6.20;1.42;;;;;;;;;;4979856;28;20042;-70
2022/01/28 02:31:40;;;;;;;6.95;1.52;;;;;;;;;;4961253;28;20126;-71
2022/01/28 02:34:09;;;;;;;7.35;1.85;;;;;;;;;;4984536;28;20050;-70
2022/01/28 02:36:35;;;;;;;7.57;1.70;;;;;;;;;;4984008;28;20085;-70
2022/01/28 02:39:03;;;;;;;6.40;1.60;;;;;;;;;;4975856;28;20054;-71
2022/01/28 02:41:34;;;;;;;8.00;1.77;;;;;;;;;;4955154;28;20056;-70
2022/01/28 02:44:15;;;;;;;8.75;1.80;;;;;;;;;;5000028;28;20065;-70
2022/01/28 02:46:53;;;;;;;8.95;2.45;;;;;;;;;;4977743;28;20485;-70
2022/01/28 02:49:19;;;;;;;6.88;1.98;;;;;;;;;;4965674;28;20082;-71
2022/01/28 02:51:45;;;;;;;5.97;1.52;;;;;;;;;;4970146;28;20108;-70
2022/01/28 02:54:14;;;;;;;6.65;1.60;;;;;;;;;;4968054;28;20046;-70
2022/01/28 02:56:48;;;;;;;7.10;1.67;;;;;;;;;;4982902;28;20097;-71
2022/01/28 02:59:14;;;;;;;8.02;1.80;;;;;;;;;;4984033;28;20104;-70
2022/01/28 03:01:40;;;;;;;8.57;1.90;;;;;;;;;;4966974;28;20073;-70
2022/01/28 03:04:08;;;;;;;8.10;1.70;;;;;;;;;;4983420;28;20050;-70
2022/01/28 03:06:34;;;;;;;8.60;1.90;;;;;;;;;;4982892;28;20048;-70
2022/01/28 03:09:12;;;;;;;7.70;2.13;;;;;;;;;;4983879;28;20745;-70
2022/01/28 03:14:32;;;;;;;6.85;2.15;;;;;;;;;;4983967;28;20098;-71
2022/01/28 03:19:40;;;;;;;8.70;2.03;;;;;;;;;;4984196;28;20104;-69
2022/01/28 03:22:06;;;;;;;8.18;1.77;;;;;;;;;;4982649;28;20042;-70
2022/01/28 03:24:32;;;;;;;9.30;2.05;;;;;;;;;;4967423;28;20121;-70
2022/01/28 03:27:04;;;;;;;7.78;1.77;;;;;;;;;;4983205;28;20045;-70
2022/01/28 03:29:30;;;;;;;6.65;1.90;;;;;;;;;;4983694;28;20077;-69
2022/01/28 03:31:56;;;;;;;7.28;2.05;;;;;;;;;;4966621;28;20042;-70
2022/01/28 03:34:22;;;;;;;8.23;2.08;;;;;;;;;;4983812;28;20206;-70
2022/01/28 03:36:52;;;;;;;7.57;2.05;;;;;;;;;;4982730;28;20149;-70
2022/01/28 03:39:18;;;;;;;8.68;2.17;;;;;;;;;;4983645;28;20072;-69
2022/01/28 03:41:44;;;;;;;8.82;1.90;;;;;;;;;;4966444;28;20041;-70
2022/01/28 03:44:10;;;;;;;9.02;2.20;;;;;;;;;;4983663;28;20081;-70
2022/01/28 03:46:36;;;;;;;9.68;2.50;;;;;;;;;;4983397;28;20508;-70
2022/01/28 03:49:03;;;;;;;9.38;2.35;;;;;;;;;;4983147;28;20050;-70
2022/01/28 03:51:29;;;;;;;9.10;2.28;;;;;;;;;;4982193;28;20050;-70
2022/01/28 03:53:56;;;;;;;6.55;2.03;;;;;;;;;;4982645;28;20054;-69
2022/01/28 03:56:22;;;;;;;7.25;1.90;;;;;;;;;;4966659;28;20030;-70
2022/01/28 03:58:48;;;;;;;8.77;2.22;;;;;;;;;;4983306;28;20056;-70
2022/01/28 04:01:18;;;;;;;6.53;2.00;;;;;;;;;;4982458;28;20129;-69
2022/01/28 04:04:02;;;;;;;7.40;1.85;;;;;;;;;;4983266;28;20050;-70
2022/01/28 04:11:59;;;;;;;;;;;;;;;;;;4982679;28;20050;-69
2022/01/28 04:19:31;;;;;;;8.85;1.98;;;;;;;;;;4982779;28;20053;-68
2022/01/28 04:21:57;;;;;;;6.28;1.58;;;;;;;;;;4981483;28;20050;-70
2022/01/28 04:24:23;;;;;;;7.88;2.00;;;;;;;;;;4982834;28;20079;-70
2022/01/28 04:26:49;;;;;;;7.47;2.00;;;;;;;;;;4981658;28;20098;-70
2022/01/28 04:29:15;;;;;;;7.78;1.80;;;;;;;;;;4982802;28;20064;-70
2022/01/28 04:31:45;;;;;;;8.43;2.00;;;;;;;;;;4981730;28;20122;-70
2022/01/28 04:34:11;;;;;;;7.72;2.10;;;;;;;;;;4982553;28;20112;-70
2022/01/28 04:36:46;;;;;;;8.27;1.90;;;;;;;;;;4980887;28;20172;-70
2022/01/28 04:39:23;;;;;;;8.63;2.15;;;;;;;;;;4982683;28;20042;-69
2022/01/28 04:44:46;;;;;;;;;;;;;;;;;;4983277;28;20053;-70
2022/01/28 04:48:08;;;;;;;8.45;1.88;;;;;;;;;;4971672;28;19921;-69
2022/01/28 04:55:22;;;;;;;6.93;1.90;;;;;;;;;;4981299;28;20046;-70
2022/01/28 04:58:12;;;;;;;8.90;2.03;;;;;;;;;;4981604;28;20046;-70
2022/01/28 05:00:57;;;;;;;7.90;1.95;;;;;;;;;;4982306;28;20118;-70
2022/01/28 05:06:29;;;;;;;8.02;2.08;;;;;;;;;;4982736;28;20142;-70
2022/01/28 05:14:21;;;;;;;7.50;1.83;;;;;;;;;;4981781;28;20540;-70
2022/01/28 05:27:49;;;;;;;7.90;1.90;;;;;;;;;;4976653;28;20085;-70
2022/01/28 05:30:15;;;;;;;7.53;2.13;;;;;;;;;;4981909;28;20069;-71
2022/01/28 05:32:42;;;;;;;8.15;1.90;;;;;;;;;;4982228;28;20038;-71
2022/01/28 05:35:08;;;;;;;8.85;1.95;;;;;;;;;;4981525;28;20114;-70
2022/01/28 05:37:34;;;;;;;6.50;1.90;;;;;;;;;;4980690;28;20089;-71
2022/01/28 05:40:00;;;;;;;7.55;2.33;;;;;;;;;;4981783;28;20057;-70
2022/01/28 05:42:26;;;;;;;9.88;2.03;;;;;;;;;;4982317;28;20066;-71
2022/01/28 05:44:53;;;;;;;8.00;1.95;;;;;;;;;;4982684;28;20074;-71
2022/01/28 05:47:21;;;;;;;9.40;2.30;;;;;;;;;;4979602;28;20043;-70
2022/01/28 05:49:47;;;;;;;7.18;1.77;;;;;;;;;;4964725;28;20042;-71
2022/01/28 05:52:13;;;;;;;7.80;1.80;;;;;;;;;;4981662;28;20046;-71
2022/01/28 05:54:39;;;;;;;8.65;2.25;;;;;;;;;;4981593;28;20593;-71
2022/01/28 05:57:05;;;;;;;8.63;1.92;;;;;;;;;;4961776;28;20038;-71
2022/01/28 05:59:31;;;;;;;7.78;1.88;;;;;;;;;;4961717;28;20123;-71
2022/01/28 06:01:57;;;;;;;10.20;2.20;;;;;;;;;;4975969;28;20188;-71
2022/01/28 06:04:23;;;;;;;8.50;2.20;;;;;;;;;;4981333;28;20049;-71
2022/01/28 06:06:49;;;;;;;9.43;1.90;;;;;;;;;;4982268;28;20516;-71
2022/01/28 06:09:15;;;;;;;8.13;2.00;;;;;;;;;;4968902;28;20054;-71
2022/01/28 06:11:43;;;;;;;9.65;1.90;;;;;;;;;;4984331;28;20146;-71
2022/01/28 06:14:09;;;;;;;11.68;2.25;;;;;;;;;;4983073;28;20066;-71
2022/01/28 06:16:35;;;;;;;8.32;2.20;;;;;;;;;;4970807;28;20638;-71
2022/01/28 06:19:02;;;;;;;7.32;2.00;;;;;;;;;;4984523;28;20073;-71
2022/01/28 06:21:28;;;;;;;9.38;2.35;;;;;;;;;;4985022;28;20715;-70
2022/01/28 06:23:55;;;;;;;7.15;1.92;;;;;;;;;;4984738;28;20486;-72
2022/01/28 06:26:21;;;;;;;10.75;2.45;;;;;;;;;;4984298;28;20038;-72
2022/01/28 06:28:47;;;;;;;8.10;2.00;;;;;;;;;;4968545;28;20171;-72
2022/01/28 06:31:13;;;;;;;7.97;2.58;;;;;;;;;;4984220;28;20054;-72
2022/01/28 06:33:39;;;;;;;9.85;2.33;;;;;;;;;;4968217;28;20674;-72
2022/01/28 06:36:05;;;;;;;9.20;2.28;;;;;;;;;;4978898;28;20042;-71
2022/01/28 06:38:33;;;;;;;7.88;2.03;;;;;;;;;;4967128;28;20650;-72
2022/01/28 06:40:59;;;;;;;6.70;2.00;;;;;;;;;;4984170;28;20078;-72
2022/01/28 06:43:25;;;;;;;8.07;1.85;;;;;;;;;;4967992;28;20053;-72
2022/01/28 06:45:51;;;;;;;8.38;1.75;;;;;;;;;;4968431;28;20055;-70
2022/01/28 06:48:19;;;;;;;9.00;2.00;;;;;;;;;;4985553;28;20145;-72
2022/01/28 06:50:45;;;;;;;9.45;2.15;;;;;;;;;;4983026;28;20042;-72
2022/01/28 06:53:13;;;;;;;7.18;1.92;;;;;;;;;;4976714;28;20042;-72
2022/01/28 06:55:39;;;;;;;7.97;1.95;;;;;;;;;;4983777;28;20073;-71
2022/01/28 06:58:06;;;;;;;9.82;2.30;;;;;;;;;;4981697;28;20053;-71
2022/01/28 07:00:39;;;;;;;8.38;2.03;;;;;;;;;;4982130;28;20046;-71
2022/01/28 07:03:06;;;;;;;10.82;2.25;;;;;;;;;;4965724;28;20062;-71
2022/01/28 07:05:32;;;;;;;10.60;2.40;;;;;;;;;;4955465;28;20045;-71
2022/01/28 07:07:58;;;;;;;8.30;2.22;;;;;;;;;;4972555;28;20030;-71
2022/01/28 07:10:24;;;;;;;8.75;2.13;;;;;;;;;;4981774;28;20069;-71
2022/01/28 07:12:53;;;;;;;9.07;2.17;;;;;;;;;;4982621;28;20070;-71
2022/01/28 07:15:19;;;;;;;12.15;2.10;;;;;;;;;;4983527;28;20058;-71
2022/01/28 07:17:45;;;;;;;12.95;2.38;;;;;;;;;;4981635;28;20068;-72
2022/01/28 07:20:11;;;;;;;10.98;2.72;;;;;;;;;;4983692;28;20500;-72
2022/01/28 07:22:37;;;;;;;14.48;2.50;;;;;;;;;;4982017;28;20092;-71
2022/01/28 07:25:03;;;;;;;8.30;2.10;;;;;;;;;;4966629;28;20074;-72
2022/01/28 07:27:29;;;;;;;14.63;2.90;;;;;;;;;;4982433;28;20183;-71
2022/01/28 07:29:55;;;;;;;8.95;2.58;;;;;;;;;;4983067;28;20042;-71
2022/01/28 07:32:23;;;;;;;14.13;2.50;;;;;;;;;;4965941;28;20046;-71
2022/01/28 07:34:49;;;;;;;12.48;2.70;;;;;;;;;;4983991;28;20050;-71
2022/01/28 07:37:15;;;;;;;9.60;2.50;;;;;;;;;;4966153;28;20558;-71
2022/01/28 07:39:41;;;;;;;12.00;2.33;;;;;;;;;;4984308;28;20034;-71
2022/01/28 07:42:07;;;;;;;9.73;2.70;;;;;;;;;;4967159;28;20046;-71
2022/01/28 07:44:33;;;;;;;11.23;2.53;;;;;;;;;;4983220;28;20050;-71
2022/01/28 07:46:59;;;;;;;13.57;2.90;;;;;;;;;;4982040;28;20050;-71
2022/01/28 07:49:25;;;;;;;10.25;2.85;;;;;;;;;;4983362;28;20246;-71
2022/01/28 07:51:51;;;;;;;10.18;2.55;;;;;;;;;;4976263;28;20050;-71
2022/01/28 07:54:17;;;;;;;9.02;2.30;;;;;;;;;;4963487;28;20051;-71
2022/01/28 07:56:46;;;;;;;8.65;2.53;;;;;;;;;;4953746;28;20569;-71
2022/01/28 07:59:12;;;;;;;9.30;2.33;;;;;;;;;;4982413;28;20046;-71
2022/01/28 08:01:38;;;;;;;12.45;2.65;;;;;;;;;;4983212;28;20477;-71
2022/01/28 08:04:04;;;;;;;10.85;2.05;;;;;;;;;;4965895;28;20284;-72
2022/01/28 08:06:30;;;;;;;9.98;3.20;;;;;;;;;;4965765;28;20053;-72
2022/01/28 08:08:58;;;;;;;11.05;3.00;;;;;;;;;;4982797;28;20108;-71
2022/01/28 08:11:24;;;;;;;10.75;2.75;;;;;;;;;;4982625;28;20057;-71
2022/01/28 08:13:50;;;;;;;11.05;2.70;;;;;;;;;;4983141;28;20042;-71
2022/01/28 08:16:16;;;;;;;9.20;2.40;;;;;;;;;;4965721;28;20492;-71
2022/01/28 08:18:42;;;;;;;10.57;2.70;;;;;;;;;;4982944;28;20054;-71
2022/01/28 08:21:08;;;;;;;11.95;2.40;;;;;;;;;;4982381;28;20050;-72
2022/01/28 08:23:35;;;;;;;11.48;2.38;;;;;;;;;;4982935;28;20054;-72
2022/01/28 08:26:02;;;;;;;9.23;2.45;;;;;;;;;;4966699;28;20061;-72
2022/01/28 08:28:28;;;;;;;10.43;2.35;;;;;;;;;;4966686;28;20084;-71
2022/01/28 08:30:55;;;;;;;8.98;2.28;;;;;;;;;;4982933;28;20081;-71
2022/01/28 08:33:21;;;;;;;11.27;2.63;;;;;;;;;;4982875;28;20549;-71
2022/01/28 08:35:52;;;;;;;9.35;2.45;;;;;;;;;;4982820;28;20092;-71
2022/01/28 08:38:24;;;;;;;9.07;2.47;;;;;;;;;;4965462;28;20043;-71
2022/01/28 08:40:52;;;;;;;10.80;2.28;;;;;;;;;;4982228;28;20097;-71
2022/01/28 08:43:18;;;;;;;11.80;2.38;;;;;;;;;;4982195;28;20042;-71
2022/01/28 08:45:44;;;;;;;10.73;2.72;;;;;;;;;;4966102;28;20515;-71
2022/01/28 08:48:10;;;;;;;11.68;2.38;;;;;;;;;;4965802;28;20069;-72
2022/01/28 08:50:36;;;;;;;8.25;2.42;;;;;;;;;;4983058;28;20054;-71
2022/01/28 08:53:02;;;;;;;7.57;2.20;;;;;;;;;;4965023;28;20053;-71
2022/01/28 08:55:28;;;;;;;9.23;2.20;;;;;;;;;;4982314;28;20046;-72
2022/01/28 08:57:56;;;;;;;12.18;2.65;;;;;;;;;;4962646;28;20120;-71
2022/01/28 09:00:22;;;;;;;7.90;2.17;;;;;;;;;;4964149;28;20109;-72
2022/01/28 09:02:49;;;;;;;9.90;2.47;;;;;;;;;;4978138;28;20053;-71
2022/01/28 09:05:15;;;;;;;7.28;2.13;;;;;;;;;;4982597;28;20042;-71
2022/01/28 09:07:41;;;;;;;10.25;2.55;;;;;;;;;;4980839;28;20050;-70
2022/01/28 09:10:12;;;;;;;9.85;2.65;;;;;;;;;;4982606;28;20073;-71
2022/01/28 09:12:46;;;;;;;11.32;2.50;;;;;;;;;;4968112;28;20523;-71
2022/01/28 09:15:13;;;;;;;12.65;2.58;;;;;;;;;;4962769;28;20054;-71
2022/01/28 09:17:39;;;;;;;9.57;2.97;;;;;;;;;;4976938;28;20137;-71
2022/01/28 09:20:05;;;;;;;9.18;2.20;;;;;;;;;;4983414;28;20042;-71
2022/01/28 09:22:31;;;;;;;8.18;2.38;;;;;;;;;;4965435;28;20117;-72
2022/01/28 09:24:58;;;;;;;9.82;2.20;;;;;;;;;;4966013;28;20060;-71
2022/01/28 09:27:24;;;;;;;9.98;2.03;;;;;;;;;;4981215;28;20057;-71
2022/01/28 09:29:50;;;;;;;9.40;2.10;;;;;;;;;;4982204;28;20608;-72
2022/01/28 09:32:19;;;;;;;9.75;2.30;;;;;;;;;;4964614;28;20050;-71
2022/01/28 09:34:45;;;;;;;7.38;2.08;;;;;;;;;;4982042;28;20078;-71
2022/01/28 09:37:14;;;;;;;8.95;2.35;;;;;;;;;;4980272;28;20077;-71
2022/01/28 09:39:45;;;;;;;10.20;2.28;;;;;;;;;;4982190;28;20069;-71
2022/01/28 09:42:13;;;;;;;8.73;2.25;;;;;;;;;;4971666;28;20038;-71
2022/01/28 09:44:39;;;;;;;11.25;2.30;;;;;;;;;;4988740;28;20046;-71
2022/01/28 09:47:05;;;;;;;9.23;2.63;;;;;;;;;;4987877;28;20056;-71
2022/01/28 09:49:32;;;;;;;7.65;1.90;;;;;;;;;;4988555;28;20093;-71
2022/01/28 09:51:59;;;;;;;9.82;2.38;;;;;;;;;;4985670;28;20042;-71
2022/01/28 09:54:25;;;;;;;8.50;2.40;;;;;;;;;;4990233;28;20080;-71
2022/01/28 09:56:50;;;;;;;9.05;2.30;;;;;;;;;;4988386;28;20057;-72
2022/01/28 09:59:17;;;;;;;11.40;2.60;;;;;;;;;;4988559;28;20476;-71
2022/01/28 10:01:53;;;;;;;11.43;2.13;;;;;;;;;;4971346;28;20073;-71
2022/01/28 10:04:19;;;;;;;8.65;2.13;;;;;;;;;;4972335;28;20125;-71
2022/01/28 10:06:46;;;;;;;10.02;2.28;;;;;;;;;;4987158;28;20610;-71
2022/01/28 10:09:14;;;;;;;11.05;2.50;;;;;;;;;;4988388;28;20128;-71
2022/01/28 10:11:43;;;;;;;11.43;2.88;;;;;;;;;;4969729;28;20121;-71
2022/01/28 10:14:16;;;;;;;8.90;2.60;;;;;;;;;;4968178;28;20038;-72
2022/01/28 10:16:42;;;;;;;10.73;2.40;;;;;;;;;;4987384;28;20109;-71
2022/01/28 10:19:11;;;;;;;8.77;2.20;;;;;;;;;;4988574;28;20614;-71
2022/01/28 10:21:39;;;;;;;10.00;2.47;;;;;;;;;;4988755;28;20034;-71
2022/01/28 10:24:17;;;;;;;7.30;1.98;;;;;;;;;;4988592;28;20054;-71
2022/01/28 10:26:43;;;;;;;10.27;2.30;;;;;;;;;;4987612;28;20049;-71
2022/01/28 10:29:11;;;;;;;9.75;2.10;;;;;;;;;;4972191;28;20046;-71
2022/01/28 10:31:48;;;;;;;8.85;2.85;;;;;;;;;;4971067;28;20050;-71
2022/01/28 10:34:31;;;;;;;10.32;2.25;;;;;;;;;;4987677;28;20153;-71
2022/01/28 10:37:16;;;;;;;9.23;2.55;;;;;;;;;;4986698;28;20046;-72
2022/01/28 10:39:57;;;;;;;9.85;2.70;;;;;;;;;;4987956;28;20121;-71
2022/01/28 10:42:26;;;;;;;9.20;2.42;;;;;;;;;;4987454;28;20122;-71
2022/01/28 10:45:02;;;;;;;8.50;2.10;;;;;;;;;;4988687;28;20049;-72
2022/01/28 10:47:29;;;;;;;9.00;2.17;;;;;;;;;;4986670;28;20050;-71
2022/01/28 10:49:55;;;;;;;9.35;2.22;;;;;;;;;;4971869;28;20042;-72
2022/01/28 10:52:30;;;;;;;8.27;2.25;;;;;;;;;;4985780;28;20104;-71
2022/01/28 10:54:59;;;;;;;8.60;2.67;;;;;;;;;;4984662;28;20123;-71
2022/01/28 10:57:25;;;;;;;8.02;2.40;;;;;;;;;;4984287;28;20042;-71
2022/01/28 10:59:52;;;;;;;8.63;2.03;;;;;;;;;;4985190;28;20135;-71
2022/01/28 11:02:18;;;;;;;9.63;2.13;;;;;;;;;;4983688;28;20050;-71
2022/01/28 11:04:46;;;;;;;6.53;1.92;;;;;;;;;;4985333;28;20121;-71
2022/01/28 11:07:12;;;;;;;9.38;2.13;;;;;;;;;;4968073;28;20081;-71
2022/01/28 11:09:40;;;;;;;10.20;2.22;;;;;;;;;;4985097;28;20046;-71
2022/01/28 11:12:07;;;;;;;8.82;2.33;;;;;;;;;;4983812;28;20046;-71
2022/01/28 11:14:33;;;;;;;8.60;2.13;;;;;;;;;;4984136;28;20054;-71
2022/01/28 11:16:59;;;;;;;8.82;2.10;;;;;;;;;;4974707;28;20055;-71
2022/01/28 11:19:28;;;;;;;8.48;2.03;;;;;;;;;;4965113;28;20476;-71
2022/01/28 11:22:11;;;;;;;8.88;2.25;;;;;;;;;;4972710;28;20046;-71
2022/01/28 11:24:42;;;;;;;8.15;2.70;;;;;;;;;;4984281;28;20038;-72
2022/01/28 11:27:11;;;;;;;9.65;2.30;;;;;;;;;;4983718;28;20054;-72
2022/01/28 11:29:37;;;;;;;9.63;2.40;;;;;;;;;;4984813;28;20050;-71
2022/01/28 11:32:14;;;;;;;8.15;2.30;;;;;;;;;;4984020;28;20527;-71
2022/01/28 11:35:02;;;;;;;9.40;2.45;;;;;;;;;;4983257;28;20054;-71
2022/01/28 11:37:32;;;;;;;8.95;2.30;;;;;;;;;;4981530;28;20042;-71
2022/01/28 11:40:09;;;;;;;8.30;2.13;;;;;;;;;;4982462;28;20432;-72
2022/01/28 11:42:35;;;;;;;10.77;2.75;;;;;;;;;;4965426;28;20050;-71
2022/01/28 11:45:02;;;;;;;11.82;2.80;;;;;;;;;;4982241;28;20132;-70
2022/01/28 11:47:32;;;;;;;9.98;2.35;;;;;;;;;;4981667;28;20381;-70
2022/01/28 11:49:58;;;;;;;8.10;1.95;;;;;;;;;;4982438;28;20046;-69
2022/01/28 11:52:37;;;;;;;10.10;2.40;;;;;;;;;;4964983;28;20050;-68
2022/01/28 11:55:16;;;;;;;8.65;2.30;;;;;;;;;;4965947;28;20239;-68
2022/01/28 11:58:08;;;;;;;9.10;2.30;;;;;;;;;;4981240;28;20157;-69
2022/01/28 12:00:34;;;;;;;7.75;1.90;;;;;;;;;;4979663;28;20046;-69
2022/01/28 12:03:01;;;;;;;8.70;1.90;;;;;;;;;;4982847;28;20050;-69
2022/01/28 12:05:30;;;;;;;7.15;2.20;;;;;;;;;;4966614;28;20640;-68
2022/01/28 12:08:04;;;;;;;7.32;1.75;;;;;;;;;;4966140;28;20053;-69
2022/01/28 12:10:32;;;;;;;7.95;2.25;;;;;;;;;;4984663;28;20100;-68
2022/01/28 12:13:00;;;;;;;6.78;1.92;;;;;;;;;;4982964;28;20054;-68
2022/01/28 12:15:31;;;;;;;8.60;2.13;;;;;;;;;;4967389;28;20046;-69
2022/01/28 12:18:06;;;;;;;6.63;2.00;;;;;;;;;;4982186;28;20500;-69
2022/01/28 12:20:37;;;;;;;8.75;2.22;;;;;;;;;;4983187;28;20118;-69
2022/01/28 12:23:09;;;;;;;11.02;2.30;;;;;;;;;;4965493;28;20569;-68
2022/01/28 12:25:41;;;;;;;7.70;1.92;;;;;;;;;;4982919;28;20050;-68
2022/01/28 12:28:10;;;;;;;9.63;2.20;;;;;;;;;;4963978;28;20134;-68
2022/01/28 12:30:36;;;;;;;8.45;2.42;;;;;;;;;;4963708;28;20090;-68
2022/01/28 12:33:02;;;;;;;9.75;2.28;;;;;;;;;;4980128;28;20507;-68
2022/01/28 12:35:28;;;;;;;9.70;2.25;;;;;;;;;;4984258;28;20043;-68
2022/01/28 12:38:00;;;;;;;8.98;2.28;;;;;;;;;;4964232;28;20069;-68
2022/01/28 12:40:36;;;;;;;10.82;2.50;;;;;;;;;;4984437;28;20053;-68
2022/01/28 12:43:03;;;;;;;10.25;2.20;;;;;;;;;;4965787;28;20046;-68
2022/01/28 12:45:29;;;;;;;8.10;2.17;;;;;;;;;;4983663;28;20053;-69
2022/01/28 12:47:55;;;;;;;10.15;2.25;;;;;;;;;;4965377;28;20050;-68
2022/01/28 12:50:22;;;;;;;6.50;1.80;;;;;;;;;;4966899;28;20097;-68
2022/01/28 12:52:48;;;;;;;9.27;2.08;;;;;;;;;;4980992;28;20130;-69
2022/01/28 12:55:14;;;;;;;10.10;2.38;;;;;;;;;;4981998;28;20121;-69
2022/01/28 12:57:47;;;;;;;7.75;2.60;;;;;;;;;;4981166;28;20539;-69
2022/01/28 13:00:15;;;;;;;8.88;2.20;;;;;;;;;;4982322;28;20077;-69
2022/01/28 13:02:42;;;;;;;8.80;2.28;;;;;;;;;;4981160;28;20038;-69
2022/01/28 13:10:24;;;;;;;9.07;2.20;;;;;;;;;;4982662;28;20141;-69
2022/01/28 13:12:50;;;;;;;8.68;2.22;;;;;;;;;;4983231;28;20034;-69
2022/01/28 13:15:17;;;;;;;7.97;2.03;;;;;;;;;;4965259;28;20133;-69
2022/01/28 13:17:54;;;;;;;8.43;2.22;;;;;;;;;;4980755;28;20545;-69
2022/01/28 13:20:21;;;;;;;8.57;2.20;;;;;;;;;;4965725;28;20117;-69
2022/01/28 13:22:51;;;;;;;8.48;2.08;;;;;;;;;;4980687;28;20065;-68
2022/01/28 13:25:22;;;;;;;11.57;2.28;;;;;;;;;;4966098;28;20054;-69
2022/01/28 13:27:52;;;;;;;7.88;1.90;;;;;;;;;;4980900;28;20069;-68
2022/01/28 13:30:19;;;;;;;9.00;2.20;;;;;;;;;;4983775;28;20108;-69
2022/01/28 13:32:50;;;;;;;8.88;2.35;;;;;;;;;;4961932;28;20050;-69
2022/01/28 13:35:16;;;;;;;7.28;2.22;;;;;;;;;;4954612;28;20132;-69
2022/01/28 13:38:08;;;;;;;9.25;2.40;;;;;;;;;;4954571;28;20046;-69
2022/01/28 13:40:35;;;;;;;11.57;2.75;;;;;;;;;;4947220;28;20137;-68
2022/01/28 13:43:05;;;;;;;11.15;2.72;;;;;;;;;;4956227;28;20042;-68
2022/01/28 13:45:35;;;;;;;11.10;2.00;;;;;;;;;;4959237;28;21705;-69
2022/01/28 13:48:02;;;;;;;9.38;2.58;;;;;;;;;;4953790;28;20191;-66
2022/01/28 13:50:38;;;;;;;8.13;2.17;;;;;;;;;;4957388;28;20141;-67
2022/01/28 13:53:21;;;;;;;10.50;2.15;;;;;;;;;;4978570;28;20499;-69
2022/01/28 13:55:49;;;;;;;8.93;2.10;;;;;;;;;;4959075;28;20059;-70
2022/01/28 13:58:15;;;;;;;9.00;2.17;;;;;;;;;;4981109;28;20042;-68
2022/01/28 14:00:45;;;;;;;10.48;1.77;;;;;;;;;;4963426;28;20147;-68
2022/01/28 14:03:22;;;;;;;8.43;2.15;;;;;;;;;;4978419;28;20064;-69
2022/01/28 14:05:58;;;;;;;9.02;2.30;;;;;;;;;;4960642;28;20054;-69
2022/01/28 14:08:41;;;;;;;9.48;2.38;;;;;;;;;;4978772;28;20054;-69
2022/01/28 14:11:28;;;;;;;7.72;2.17;;;;;;;;;;4973207;28;20061;-67
2022/01/28 14:14:09;;;;;;;8.30;2.13;;;;;;;;;;4960593;28;20411;-68
2022/01/28 14:16:35;;;;;;;8.10;1.80;;;;;;;;;;4979556;28;20169;-70
2022/01/28 14:19:02;;;;;;;8.68;2.13;;;;;;;;;;4982128;28;20117;-71
2022/01/28 14:21:28;;;;;;;7.82;2.05;;;;;;;;;;4978418;28;20053;-68
2022/01/28 14:23:54;;;;;;;11.57;2.42;;;;;;;;;;4981577;28;20046;-68
2022/01/28 14:26:20;;;;;;;8.25;2.40;;;;;;;;;;4978510;28;20081;-70
2022/01/28 14:31:22;;;;;;;8.32;1.95;;;;;;;;;;4968326;28;20046;-69
2022/01/28 14:33:49;;;;;;;11.98;2.25;;;;;;;;;;4955852;28;20058;-70
2022/01/28 14:36:15;;;;;;;8.32;1.83;;;;;;;;;;4970186;28;20039;-69
2022/01/28 14:38:42;;;;;;;8.32;2.00;;;;;;;;;;4964453;28;20038;-68
2022/01/28 14:41:10;;;;;;;7.40;2.10;;;;;;;;;;4983210;28;20133;-69
2022/01/28 14:43:36;;;;;;;7.45;1.85;;;;;;;;;;4982914;28;20512;-68
2022/01/28 14:46:02;;;;;;;7.57;1.70;;;;;;;;;;4961566;28;20057;-70
2022/01/28 14:48:28;;;;;;;10.98;2.60;;;;;;;;;;4982866;28;20046;-73
2022/01/28 14:50:55;;;;;;;8.27;1.98;;;;;;;;;;4981278;28;20058;-67
2022/01/28 14:53:21;;;;;;;6.90;2.08;;;;;;;;;;4984483;28;20092;-69
2022/01/28 14:55:47;;;;;;;8.05;2.17;;;;;;;;;;4985155;28;20057;-70
2022/01/28 14:58:13;;;;;;;7.85;2.17;;;;;;;;;;4985434;28;20027;-69
2022/01/28 15:00:39;;;;;;;8.32;2.03;;;;;;;;;;4985566;28;20046;-79
2022/01/28 15:03:06;;;;;;;9.40;2.03;;;;;;;;;;4965696;28;20116;-77
2022/01/28 15:05:34;;;;;;;9.63;1.85;;;;;;;;;;4982353;28;20050;-79
2022/01/28 15:08:06;;;;;;;8.50;2.13;;;;;;;;;;4983542;28;20054;-75
2022/01/28 15:10:32;;;;;;;6.28;1.90;;;;;;;;;;4984645;28;20070;-73
2022/01/28 15:12:58;;;;;;;10.18;2.22;;;;;;;;;;4982651;28;20034;-75
2022/01/28 15:15:24;;;;;;;10.00;2.33;;;;;;;;;;4984736;28;20050;-78
2022/01/28 15:17:50;;;;;;;10.68;2.20;;;;;;;;;;4953290;28;20054;-78
2022/01/28 15:20:17;;;;;;;7.18;1.73;;;;;;;;;;4964374;28;20070;-78
2022/01/28 15:22:43;;;;;;;8.25;2.00;;;;;;;;;;4979950;28;20575;-74
2022/01/28 15:25:09;;;;;;;10.45;2.20;;;;;;;;;;4968978;28;20042;-78
2022/01/28 15:27:35;;;;;;;9.60;2.00;;;;;;;;;;4963905;28;20042;-78
2022/01/28 15:35:44;;;;;;;8.63;1.80;;;;;;;;;;4985742;28;20086;-74
2022/01/28 15:38:04;;;;;;;8.77;1.75;;;;;;;;;;4984105;28;20050;-71
2022/01/28 15:40:31;;;;;;;8.45;1.83;;;;;;;;;;4985264;28;20091;-76
2022/01/28 15:43:00;;;;;;;10.63;2.08;;;;;;;;;;4983519;28;20057;-74
2022/01/28 15:45:29;;;;;;;7.10;2.10;;;;;;;;;;4984368;28;20763;-79
2022/01/28 15:47:55;;;;;;;9.27;1.90;;;;;;;;;;4982858;28;20082;-72
2022/01/28 15:50:21;;;;;;;7.60;2.08;;;;;;;;;;4982863;28;20983;-74
2022/01/28 15:52:47;;;;;;;6.07;1.92;;;;;;;;;;4980682;28;20046;-76
2022/01/28 15:55:15;;;;;;;6.15;1.77;;;;;;;;;;4970542;28;20609;-75
2022/01/28 15:57:42;;;;;;;7.15;1.85;;;;;;;;;;4958791;28;20203;-73
2022/01/28 16:00:08;;;;;;;8.77;2.03;;;;;;;;;;4983942;28;20042;-73
2022/01/28 16:02:34;;;;;;;6.53;1.75;;;;;;;;;;4970285;28;20069;-71
2022/01/28 16:05:01;;;;;;;9.50;2.30;;;;;;;;;;4949629;28;20400;-74
2022/01/28 16:07:29;;;;;;;9.15;2.10;;;;;;;;;;4976630;28;20844;-75
2022/01/28 16:10:03;;;;;;;7.38;1.65;;;;;;;;;;4984378;28;20071;-78